Погода Нижнеподпольныйна неделю

Ростовская область, Россия

30 мая-05 июня
  • 30мая
    Сегодня
    +17°
    +29°
    Облачно с прояснениями
    ВремяПогодаТемператураВлажностьДавлениеВетер, м/сВероятность осадков
    00:00Ясно и безоблачно+16°C93 %759 мм1.8 м/с2 %
    03:00Ясно и безоблачно+15°C97 %759 мм1.8 м/с2 %
    06:00Ясно и безоблачно+16°C94 %759 мм0.7 м/с2 %
    09:00Ясно и безоблачно+22°C66 %759 мм0.5 м/с2 %
    12:00Практически безоблачно+26°C47 %759 мм1.2 м/с2 %
    15:00Облачно с прояснениями+28°C43 %758 мм1.2 м/с6 %
    18:00Облачно с прояснениями+26°C51 %758 мм1.6 м/с31 %
    21:00Облачно с прояснениями+22°C71 %758 мм1.6 м/с16 %
  • 31мая
    Пятница
    +16°
    +29°
    Ясно и безоблачно
    ВремяПогодаТемператураВлажностьДавлениеВетер, м/сВероятность осадков
    00:00Небольшая облачность, возможен дождь с грозой+19°C80 %759 мм2.5 м/с28 %
    03:00Облачно с прояснениями, ливень+17°C95 %758 мм0.5 м/с47 %
    06:00Облачно с прояснениями+18°C93 %759 мм1.8 м/с35 %
    09:00Облачно с прояснениями+25°C62 %759 мм0.7 м/с12 %
    12:00Облачно с прояснениями+28°C45 %759 мм2.0 м/с15 %
    15:00Ясно и безоблачно+28°C45 %759 мм2.1 м/с24 %
    18:00Облачно с прояснениями+24°C58 %759 мм1.4 м/с37 %
    21:00Облачно с прояснениями+21°C78 %760 мм1.8 м/с18 %
  • 01июня
    Суббота
    +17°
    +32°
    Практически безоблачно
    ВремяПогодаТемператураВлажностьДавлениеВетер, м/сВероятность осадков
    00:00Ясно и безоблачно+18°C91 %760 мм2.2 м/с5 %
    03:00Практически безоблачно+17°C93 %760 мм2.0 м/с8 %
    06:00Ясно и безоблачно+18°C90 %760 мм0.4 м/с5 %
    09:00Облачно с прояснениями+24°C64 %760 мм1.1 м/с2 %
    12:00Практически безоблачно+30°C35 %760 мм2.8 м/с8 %
    15:00Практически безоблачно+31°C30 %760 мм4.4 м/с17 %
    18:00Практически безоблачно+27°C41 %760 мм6.1 м/с9 %
    21:00Ясно и безоблачно+23°C67 %761 мм4.9 м/с2 %
  • 02июня
    Воскресенье
    +16°
    +31°
    Ясно и безоблачно
    ВремяПогодаТемператураВлажностьДавлениеВетер, м/сВероятность осадков
    00:00Ясно и безоблачно+21°C77 %761 мм4.6 м/с2 %
    03:00Ясно и безоблачно+18°C83 %761 мм2.7 м/с2 %
    06:00Ясно и безоблачно+19°C65 %761 мм2.8 м/с2 %
    09:00Ясно и безоблачно+27°C45 %761 мм3.1 м/с2 %
    12:00Ясно и безоблачно+30°C34 %761 мм4.6 м/с4 %
    15:00Ясно и безоблачно+30°C29 %760 мм6.0 м/с4 %
    18:00Ясно и безоблачно+28°C39 %760 мм5.8 м/с2 %
    21:00Ясно и безоблачно+22°C73 %760 мм4.0 м/с2 %
  • 03июня
    Понедельник
    +17°
    +31°
    Практически безоблачно
    ВремяПогодаТемператураВлажностьДавлениеВетер, м/сВероятность осадков
    00:00Ясно и безоблачно+20°C73 %760 мм3.4 м/с2 %
    03:00Ясно и безоблачно+18°C85 %759 мм3.0 м/с2 %
    06:00Ясно и безоблачно+19°C86 %759 мм3.3 м/с2 %
    09:00Небольшая облачность+26°C59 %759 мм3.6 м/с2 %
    12:00Практически безоблачно+30°C45 %758 мм5.0 м/с6 %
    15:00Практически безоблачно+31°C43 %758 мм6.1 м/с15 %
    18:00Практически безоблачно+28°C46 %757 мм5.3 м/с6 %
    21:00Ясно и безоблачно+24°C65 %758 мм4.6 м/с2 %
Мы используем cookies
Соглашаюсь